Strumenti personali
Tu sei qui: Portale Dati rete

Dati disponibili

Clicca sulla provincia, potrai visualizzare le stazioni presenti nel suo territorio

Belluno, Padova, Rovigo, Treviso, Venezia, Verona, Vicenza

 

 

Provincia di BellunoProvincia di VicenzaProvincia di TrevisoProvincia di VeneziaProvincia di PadovaProvincia di VeronaProvincia di Rovigo

Dipartimento Regionale per la Sicurezza del Territorio

Servizio Centro Meteorologico di Teolo

Stazione Monte Avena
Provincia BELLUNO

Valori giornalieri nel periodo 23/02/2014 - 23/04/2014

La tabella è stata elaborata con i dati trasmessi in automatico dalle centraline, dopo la validazione possono subire parziali modifiche.
Data (gg/mm/aa) Temp. aria
a 2m
(°C)
Pioggia
(mm)
Umidità rel.
a 2m
(%)
Radiazione globale
(MJ/m2)
Vento a 5 m
  med     min     max   tot min max tot Sfilato (km/g) Raffica Direz. preval
ora m/s
23/02/14 -0.5 -4.1 5.1 0.0 30 83 11.159 83.6 00:13 4.3 O
24/02/14 0.4 -2.0 3.9 0.0 50 84 16.374 82.9 14:25 4.3 O
25/02/14 0.0 -1.9 3.2 0.0 60 87 16.317 105.1 16:41 5.4 SO
26/02/14 0.0 -1.0 2.2 2.6 64 97 6.546 77.9 16:10 4.6 ENE
27/02/14 -0.6 -2.0 2.8 3.4 76 98 10.449 96.4 16:23 5.6 SO
28/02/14 -1.9 -3.3 -0.5 0.0 80 97 6.081 118.7 22:08 3.9 ENE
01/03/14 -1.7 -2.2 -0.9 18.0 94 97 3.483 262.1 17:50 10.6 ENE
02/03/14 -0.6 -2.1 0.1 3.8 96 98 6.740 >> 13:10 4.9 ENE
03/03/14 -1.1 -2.8 0.1 0.2 88 98 4.569 124.1 20:31 4.2 SO
04/03/14 -0.4 -2.2 1.1 0.6 80 98 8.705 122.3 >> >> NE
05/03/14 1.6 -1.3 7.6 0.0 48 97 12.577 102.1 22:52 5.3 NO
06/03/14 3.4 0.1 7.6 0.0 31 62 16.349 128.2 00:28 5.4 ONO
07/03/14 >> >> >> 0.0 >> >> >> >> >> >> >>
08/03/14 >> >> >> 0.0 >> >> >> >> >> >> >>
09/03/14 >> >> >> 0.0 >> >> >> >> >> >> >>
10/03/14 >> >> >> 0.0 >> >> >> >> >> >> >>
11/03/14 3.5 0.6 9.2 0.0 27 75 18.545 73.7 02:29 4.7 O
12/03/14 6.7 2.2 12.8 0.0 21 61 19.455 73.1 00:52 3.4 SSO
13/03/14 6.7 3.6 11.0 0.0 27 59 19.229 92.2 09:44 3.4 SO
14/03/14 7.7 3.7 14.9 0.0 30 63 19.826 55.3 02:54 5.6 SE
15/03/14 6.7 4.2 9.3 0.0 41 66 14.786 269.8 05:40 6.9 O
16/03/14 8.3 3.3 13.1 0.0 31 63 19.556 271.0 16:14 10.2 SO
17/03/14 11.1 7.8 14.7 0.0 15 40 21.150 274.2 05:39 8.0 O
18/03/14 8.5 3.6 13.7 0.0 18 100 19.857 95.3 00:46 4.9 O
19/03/14 8.0 3.1 12.0 0.0 20 100 20.918 167.6 16:51 7.7 NO
20/03/14 6.8 3.9 10.6 0.0 52 89 20.535 117.2 14:51 5.0 OSO
21/03/14 6.1 3.9 9.7 0.0 55 97 20.045 148.8 10:17 5.3 OSO
22/03/14 3.4 2.1 4.9 10.2 89 100 5.334 97.6 20:09 5.6 S
23/03/14 1.6 -1.4 4.1 37.0 87 100 4.588 158.0 13:01 11.0 SE
24/03/14 -1.6 -3.7 0.6 5.0 68 100 11.033 111.8 19:05 5.8 ONO
25/03/14 -2.7 -5.3 -0.5 1.0 70 99 12.545 103.6 16:59 5.3 ENE
26/03/14 -1.5 -3.7 0.8 0.2 59 98 15.163 160.7 11:50 8.3 ENE
27/03/14 1.2 -2.3 4.5 0.0 56 96 12.909 163.4 11:13 5.6 NE
28/03/14 4.7 0.9 9.1 0.0 39 71 19.204 105.8 14:42 7.3 O
29/03/14 6.1 2.9 9.9 0.0 42 70 22.876 104.2 11:59 5.7 OSO
30/03/14 7.0 4.9 10.1 0.0 37 80 22.204 91.3 16:13 6.0 OSO
31/03/14 7.6 4.2 12.3 0.0 49 85 22.129 145.9 05:54 4.1 SO
01/04/14 7.4 5.1 11.1 0.0 57 100 19.185 82.6 15:10 4.4 E
02/04/14 6.1 4.4 8.4 0.0 69 100 14.717 113.5 14:19 5.3 SO
03/04/14 5.1 3.8 7.1 0.0 84 100 6.696 66.4 00:01 2.7 NE
04/04/14 5.2 3.4 7.7 0.6 61 100 10.098 211.0 18:12 9.3 ENE
05/04/14 6.4 3.8 8.6 1.0 61 99 12.087 140.2 05:18 5.0 NE
06/04/14 8.6 6.1 11.5 0.6 50 84 17.309 137.5 03:52 6.0 ONO
07/04/14 9.0 6.8 12.4 0.0 62 86 23.535 163.9 14:55 7.6 OSO
08/04/14 8.3 5.2 11.3 10.4 69 100 13.587 155.4 18:39 6.0 ONO
09/04/14 6.1 3.3 9.3 0.0 22 99 24.470 228.2 11:28 9.4 NO
10/04/14 5.7 1.5 8.9 0.0 39 100 22.857 176.9 23:37 5.2 OSO
11/04/14 4.9 2.9 7.9 0.0 52 100 7.299 120.7 03:17 5.3 SSO
12/04/14 4.3 3.4 5.7 2.6 85 100 6.439 78.8 05:07 3.7 OSO
13/04/14 5.4 3.0 8.2 0.0 78 100 11.610 69.6 14:31 3.6 OSO
14/04/14 6.7 3.7 9.4 0.2 30 99 13.725 179.5 23:57 13.0 SO
15/04/14 3.2 -0.4 6.0 0.0 21 44 20.748 306.7 01:26 13.3 NO
16/04/14 2.1 -1.4 7.1 0.0 26 48 21.777 155.8 00:12 7.5 NNO
17/04/14 4.1 -0.6 8.7 0.0 19 54 27.582 136.1 00:40 6.5 ESE
18/04/14 4.9 1.2 7.6 0.0 32 96 17.867 121.0 23:11 5.9 NE
19/04/14 2.3 -0.1 5.5 10.6 75 100 7.067 244.7 08:39 7.8 NE
20/04/14 4.5 2.9 7.2 1.8 77 100 9.037 131.4 02:56 3.8 E
21/04/14 3.5 2.4 4.9 1.8 91 100 3.835 134.2 13:07 4.7 ENE
22/04/14 6.5 3.3 9.7 0.0 70 98 19.644 127.9 13:46 5.8 O
23/04/14 8.5 5.4 11.5 0.4 59 98 20.108 123.8 15:12 6.0 NO
Se la casella è vuota il sensore non è attivo.
Se la casella contiene ">>" il valore non è disponibile.
Si segnala che con precipitazione nevosa il pluviometro potrebbe non rilevare o sottostimare il fenomeno.
L'orario indicato nella raffica è solare.
La direzione prevalente del vento è in settori e rappresenta la provenienza del vento, il settore è ampio 22.5 gradi con asse nella direzione indicata.

Oltre alla gestione operativa delle stazioni, che comprende le operazioni di acquisizione, validazione e archiviazione dati, tale settore si occupa della predisposizione di una serie di prodotti e servizi, finalizzati all'utenza esterna, rappresentati dai dati e servizi di tipo standard il cui costo è gia quantificato (listino prodotti tariffati) o prodotti e servizi particolari, legati a specifiche esigenze dell'utenza, il cui prezzo viene determinato di volta in volta al momento della richiesta dati.

Azioni sul documento

ultima modifica 01/07/2011 15:07